Terminal Aerodrome Forecast
Issued by NWS

Home | Current Version | Previous Version | Text Only | Print | Product List | Glossary On
Versions: 1 2 3 4 5 6 7 8 9 10 11 12 13 14 15 16
000
FTUS43 KILX 221100
TAFDEC
TAF
KDEC 221140Z 2212/2312 13012KT P6SM VCSH OVC035
     FM221300 13014KT 6SM -RA HZ SCT012 OVC030
     FM221600 13014KT 3SM -RA BR BKN007 OVC015
     FM221800 15014G19KT 1 1/2SM -RA BR OVC004
     FM230300 13014KT 4SM -RA BR OVC006=

USA.gov is the U.S. government's official web portal to all federal, state and local government web resources and services.